Airport ID:KTME
Update Time (UTC):21 SEP 17 12:04
Wind Speed (Knots):CALM
Wind Direction (Magnetic):
Temperature (°C):24
Dew Point (°C):24
Humidity (%):99
Altimeter (inHg):29.96
Density Altitude (Feet):1200
Visibility (Miles):4
Clouds (Hundreds of feet):CLR
Present Weather:MIST
METAR:METAR KTME 211200Z AUTO 00000KT 4SM BR CLR 24/24 A2996 RMK AO2

The data displayed is for advisory purposes only and is not to be used for flight planning or operations.

This page is not automatically refreshed. Reload the page to see current data.